sensor_id;sensor_type;location;lat;lon;timestamp;temperature;humidity
21722;DHT22;11023;48.274;7.794;2023-11-19T00:02:22;10.70;99.90
21722;DHT22;11023;48.274;7.794;2023-11-19T00:04:47;10.70;99.90
21722;DHT22;11023;48.274;7.794;2023-11-19T00:07:13;10.70;99.90
21722;DHT22;11023;48.274;7.794;2023-11-19T00:09:40;10.60;99.90
21722;DHT22;11023;48.274;7.794;2023-11-19T00:12:06;10.60;99.90
21722;DHT22;11023;48.274;7.794;2023-11-19T00:14:33;10.60;99.90
21722;DHT22;11023;48.274;7.794;2023-11-19T00:17:00;10.60;99.90
21722;DHT22;11023;48.274;7.794;2023-11-19T00:19:25;10.60;99.90
21722;DHT22;11023;48.274;7.794;2023-11-19T00:21:52;10.60;99.90
21722;DHT22;11023;48.274;7.794;2023-11-19T00:24:17;10.70;99.90
21722;DHT22;11023;48.274;7.794;2023-11-19T00:26:44;10.70;99.90
21722;DHT22;11023;48.274;7.794;2023-11-19T00:29:09;10.70;99.90
21722;DHT22;11023;48.274;7.794;2023-11-19T00:31:35;10.80;99.90
21722;DHT22;11023;48.274;7.794;2023-11-19T00:34:01;10.80;99.90
21722;DHT22;11023;48.274;7.794;2023-11-19T00:36:27;10.90;99.90
21722;DHT22;11023;48.274;7.794;2023-11-19T00:38:54;10.90;99.90
21722;DHT22;11023;48.274;7.794;2023-11-19T00:41:20;10.90;99.90
21722;DHT22;11023;48.274;7.794;2023-11-19T00:43:46;10.90;99.90
21722;DHT22;11023;48.274;7.794;2023-11-19T00:46:11;10.90;99.90
21722;DHT22;11023;48.274;7.794;2023-11-19T00:48:39;10.90;99.90
21722;DHT22;11023;48.274;7.794;2023-11-19T00:51:05;11.00;99.90
21722;DHT22;11023;48.274;7.794;2023-11-19T00:53:31;11.00;99.90
21722;DHT22;11023;48.274;7.794;2023-11-19T00:55:57;11.00;99.90
21722;DHT22;11023;48.274;7.794;2023-11-19T00:58:23;11.00;99.90
21722;DHT22;11023;48.274;7.794;2023-11-19T01:00:49;11.00;99.90
21722;DHT22;11023;48.274;7.794;2023-11-19T01:03:15;11.00;99.90
21722;DHT22;11023;48.274;7.794;2023-11-19T01:05:44;11.10;99.90
21722;DHT22;11023;48.274;7.794;2023-11-19T01:08:12;11.00;99.90
21722;DHT22;11023;48.274;7.794;2023-11-19T01:10:38;11.10;99.90
21722;DHT22;11023;48.274;7.794;2023-11-19T01:13:03;11.10;99.90
21722;DHT22;11023;48.274;7.794;2023-11-19T01:15:32;11.10;99.90
21722;DHT22;11023;48.274;7.794;2023-11-19T01:17:57;11.10;99.90
21722;DHT22;11023;48.274;7.794;2023-11-19T01:20:23;11.10;99.90
21722;DHT22;11023;48.274;7.794;2023-11-19T01:22:49;11.10;99.90
21722;DHT22;11023;48.274;7.794;2023-11-19T01:25:15;11.20;99.90
21722;DHT22;11023;48.274;7.794;2023-11-19T01:27:41;11.20;99.90
21722;DHT22;11023;48.274;7.794;2023-11-19T01:30:07;11.30;99.90
21722;DHT22;11023;48.274;7.794;2023-11-19T01:32:35;11.40;99.90
21722;DHT22;11023;48.274;7.794;2023-11-19T01:35:03;11.50;99.90
21722;DHT22;11023;48.274;7.794;2023-11-19T01:37:28;11.50;99.90
21722;DHT22;11023;48.274;7.794;2023-11-19T01:39:54;11.50;99.90
21722;DHT22;11023;48.274;7.794;2023-11-19T01:42:20;11.60;99.90
21722;DHT22;11023;48.274;7.794;2023-11-19T01:44:58;11.60;99.90
21722;DHT22;11023;48.274;7.794;2023-11-19T01:47:25;11.60;99.90
21722;DHT22;11023;48.274;7.794;2023-11-19T01:49:51;11.60;99.90
21722;DHT22;11023;48.274;7.794;2023-11-19T01:52:18;11.60;99.90
21722;DHT22;11023;48.274;7.794;2023-11-19T01:54:44;11.60;99.90
21722;DHT22;11023;48.274;7.794;2023-11-19T01:57:10;11.60;99.90
21722;DHT22;11023;48.274;7.794;2023-11-19T01:59:37;11.60;99.90
21722;DHT22;11023;48.274;7.794;2023-11-19T02:02:04;11.60;99.90
21722;DHT22;11023;48.274;7.794;2023-11-19T02:04:31;11.60;99.90
21722;DHT22;11023;48.274;7.794;2023-11-19T02:06:58;11.60;99.90
21722;DHT22;11023;48.274;7.794;2023-11-19T02:09:24;11.60;99.90
21722;DHT22;11023;48.274;7.794;2023-11-19T02:11:50;11.60;99.90
21722;DHT22;11023;48.274;7.794;2023-11-19T02:14:17;11.60;99.90
21722;DHT22;11023;48.274;7.794;2023-11-19T02:16:43;11.60;99.90
21722;DHT22;11023;48.274;7.794;2023-11-19T02:19:10;11.60;99.90
21722;DHT22;11023;48.274;7.794;2023-11-19T02:21:37;11.60;99.90
21722;DHT22;11023;48.274;7.794;2023-11-19T02:24:06;11.60;99.90
21722;DHT22;11023;48.274;7.794;2023-11-19T02:29:17;11.60;99.90
21722;DHT22;11023;48.274;7.794;2023-11-19T02:31:43;11.60;99.90
21722;DHT22;11023;48.274;7.794;2023-11-19T02:34:10;11.60;99.90
21722;DHT22;11023;48.274;7.794;2023-11-19T02:36:38;11.60;99.90
21722;DHT22;11023;48.274;7.794;2023-11-19T02:39:03;11.60;99.90
21722;DHT22;11023;48.274;7.794;2023-11-19T02:41:33;11.60;99.90
21722;DHT22;11023;48.274;7.794;2023-11-19T02:44:00;11.60;99.90
21722;DHT22;11023;48.274;7.794;2023-11-19T02:46:26;11.50;99.90
21722;DHT22;11023;48.274;7.794;2023-11-19T02:48:52;11.60;99.90
21722;DHT22;11023;48.274;7.794;2023-11-19T02:51:18;11.50;99.90
21722;DHT22;11023;48.274;7.794;2023-11-19T02:53:44;11.50;99.90
21722;DHT22;11023;48.274;7.794;2023-11-19T02:56:13;11.50;99.90
21722;DHT22;11023;48.274;7.794;2023-11-19T02:58:53;11.50;99.90
21722;DHT22;11023;48.274;7.794;2023-11-19T03:01:25;11.50;99.90
21722;DHT22;11023;48.274;7.794;2023-11-19T03:04:00;11.50;99.90
21722;DHT22;11023;48.274;7.794;2023-11-19T03:06:27;11.50;99.90
21722;DHT22;11023;48.274;7.794;2023-11-19T03:08:54;11.50;99.90
21722;DHT22;11023;48.274;7.794;2023-11-19T03:11:20;11.50;99.90
21722;DHT22;11023;48.274;7.794;2023-11-19T03:13:46;11.50;99.90
21722;DHT22;11023;48.274;7.794;2023-11-19T03:16:12;11.50;99.90
21722;DHT22;11023;48.274;7.794;2023-11-19T03:18:39;11.50;99.90
21722;DHT22;11023;48.274;7.794;2023-11-19T03:21:08;11.50;99.90
21722;DHT22;11023;48.274;7.794;2023-11-19T03:23:34;11.50;99.90
21722;DHT22;11023;48.274;7.794;2023-11-19T03:26:00;11.50;99.90
21722;DHT22;11023;48.274;7.794;2023-11-19T03:28:31;11.50;99.90
21722;DHT22;11023;48.274;7.794;2023-11-19T03:30:58;11.50;99.90
21722;DHT22;11023;48.274;7.794;2023-11-19T03:33:24;11.60;99.90
21722;DHT22;11023;48.274;7.794;2023-11-19T03:35:53;11.50;99.90
21722;DHT22;11023;48.274;7.794;2023-11-19T03:38:19;11.60;99.90
21722;DHT22;11023;48.274;7.794;2023-11-19T03:40:46;11.60;99.90
21722;DHT22;11023;48.274;7.794;2023-11-19T03:43:11;11.60;99.90
21722;DHT22;11023;48.274;7.794;2023-11-19T03:45:38;11.60;99.90
21722;DHT22;11023;48.274;7.794;2023-11-19T03:48:04;11.60;99.90
21722;DHT22;11023;48.274;7.794;2023-11-19T03:50:30;11.60;99.90
21722;DHT22;11023;48.274;7.794;2023-11-19T03:52:55;11.60;99.90
21722;DHT22;11023;48.274;7.794;2023-11-19T03:55:22;11.60;99.90
21722;DHT22;11023;48.274;7.794;2023-11-19T03:57:47;11.60;99.90
21722;DHT22;11023;48.274;7.794;2023-11-19T04:00:14;11.50;99.90
21722;DHT22;11023;48.274;7.794;2023-11-19T04:02:41;11.50;99.90
21722;DHT22;11023;48.274;7.794;2023-11-19T04:05:08;11.60;99.90
21722;DHT22;11023;48.274;7.794;2023-11-19T04:07:35;11.60;99.90
21722;DHT22;11023;48.274;7.794;2023-11-19T04:10:01;11.60;99.90
21722;DHT22;11023;48.274;7.794;2023-11-19T04:12:27;11.60;99.90
21722;DHT22;11023;48.274;7.794;2023-11-19T04:14:53;11.60;99.90
21722;DHT22;11023;48.274;7.794;2023-11-19T04:17:19;11.60;99.90
21722;DHT22;11023;48.274;7.794;2023-11-19T04:19:45;11.60;99.90
21722;DHT22;11023;48.274;7.794;2023-11-19T04:22:11;11.50;99.90
21722;DHT22;11023;48.274;7.794;2023-11-19T04:24:36;11.60;99.90
21722;DHT22;11023;48.274;7.794;2023-11-19T04:27:02;11.60;99.90
21722;DHT22;11023;48.274;7.794;2023-11-19T04:29:31;11.60;99.90
21722;DHT22;11023;48.274;7.794;2023-11-19T04:31:57;11.60;99.90
21722;DHT22;11023;48.274;7.794;2023-11-19T04:34:24;11.70;99.90
21722;DHT22;11023;48.274;7.794;2023-11-19T04:36:51;11.70;99.90
21722;DHT22;11023;48.274;7.794;2023-11-19T04:39:16;11.70;99.90
21722;DHT22;11023;48.274;7.794;2023-11-19T04:44:17;11.70;99.90
21722;DHT22;11023;48.274;7.794;2023-11-19T04:46:44;11.70;99.90
21722;DHT22;11023;48.274;7.794;2023-11-19T04:49:12;11.70;99.90
21722;DHT22;11023;48.274;7.794;2023-11-19T04:51:39;11.70;99.90
21722;DHT22;11023;48.274;7.794;2023-11-19T04:54:06;11.70;99.90
21722;DHT22;11023;48.274;7.794;2023-11-19T04:56:34;11.70;99.90
21722;DHT22;11023;48.274;7.794;2023-11-19T04:59:01;11.80;99.90
21722;DHT22;11023;48.274;7.794;2023-11-19T05:01:27;11.80;99.90
21722;DHT22;11023;48.274;7.794;2023-11-19T05:03:53;11.80;99.90
21722;DHT22;11023;48.274;7.794;2023-11-19T05:06:19;11.80;99.90
21722;DHT22;11023;48.274;7.794;2023-11-19T05:08:45;11.90;99.90
21722;DHT22;11023;48.274;7.794;2023-11-19T05:11:11;11.90;99.90
21722;DHT22;11023;48.274;7.794;2023-11-19T05:13:43;11.90;99.90
21722;DHT22;11023;48.274;7.794;2023-11-19T05:16:11;12.00;99.90
21722;DHT22;11023;48.274;7.794;2023-11-19T05:18:40;12.00;99.90
21722;DHT22;11023;48.274;7.794;2023-11-19T05:21:05;12.00;99.90
21722;DHT22;11023;48.274;7.794;2023-11-19T05:23:32;12.00;99.90
21722;DHT22;11023;48.274;7.794;2023-11-19T05:26:03;12.00;99.90
21722;DHT22;11023;48.274;7.794;2023-11-19T05:28:28;12.00;99.90
21722;DHT22;11023;48.274;7.794;2023-11-19T05:30:54;12.00;99.90
21722;DHT22;11023;48.274;7.794;2023-11-19T05:33:21;12.00;99.90
21722;DHT22;11023;48.274;7.794;2023-11-19T05:35:47;12.00;99.90
21722;DHT22;11023;48.274;7.794;2023-11-19T05:38:12;12.00;99.90
21722;DHT22;11023;48.274;7.794;2023-11-19T05:40:38;11.90;99.90
21722;DHT22;11023;48.274;7.794;2023-11-19T05:43:06;11.90;99.90
21722;DHT22;11023;48.274;7.794;2023-11-19T05:45:32;12.00;99.90
21722;DHT22;11023;48.274;7.794;2023-11-19T05:47:58;11.90;99.90
21722;DHT22;11023;48.274;7.794;2023-11-19T05:50:25;12.00;99.90
21722;DHT22;11023;48.274;7.794;2023-11-19T05:52:52;12.00;99.90
21722;DHT22;11023;48.274;7.794;2023-11-19T05:55:19;12.10;99.90
21722;DHT22;11023;48.274;7.794;2023-11-19T05:57:45;12.10;99.90
21722;DHT22;11023;48.274;7.794;2023-11-19T06:00:11;12.10;99.90
21722;DHT22;11023;48.274;7.794;2023-11-19T06:02:38;12.20;99.90
21722;DHT22;11023;48.274;7.794;2023-11-19T06:05:05;12.20;99.90
21722;DHT22;11023;48.274;7.794;2023-11-19T06:07:32;12.20;99.90
21722;DHT22;11023;48.274;7.794;2023-11-19T06:09:58;12.30;99.90
21722;DHT22;11023;48.274;7.794;2023-11-19T06:12:24;12.30;99.90
21722;DHT22;11023;48.274;7.794;2023-11-19T06:14:52;12.30;99.90
21722;DHT22;11023;48.274;7.794;2023-11-19T06:17:18;12.30;99.90
21722;DHT22;11023;48.274;7.794;2023-11-19T06:19:44;12.40;99.90
21722;DHT22;11023;48.274;7.794;2023-11-19T06:22:10;12.40;99.90
21722;DHT22;11023;48.274;7.794;2023-11-19T06:24:36;12.40;99.90
21722;DHT22;11023;48.274;7.794;2023-11-19T06:27:02;12.50;99.90
21722;DHT22;11023;48.274;7.794;2023-11-19T06:29:28;12.50;99.90
21722;DHT22;11023;48.274;7.794;2023-11-19T06:31:54;12.50;99.90
21722;DHT22;11023;48.274;7.794;2023-11-19T06:34:19;12.50;99.90
21722;DHT22;11023;48.274;7.794;2023-11-19T06:36:45;12.50;99.90
21722;DHT22;11023;48.274;7.794;2023-11-19T06:39:10;12.60;99.90
21722;DHT22;11023;48.274;7.794;2023-11-19T06:41:36;12.60;99.90
21722;DHT22;11023;48.274;7.794;2023-11-19T06:44:05;12.60;99.90
21722;DHT22;11023;48.274;7.794;2023-11-19T06:46:31;12.70;99.90
21722;DHT22;11023;48.274;7.794;2023-11-19T06:48:57;12.70;99.90
21722;DHT22;11023;48.274;7.794;2023-11-19T06:51:23;12.80;99.90
21722;DHT22;11023;48.274;7.794;2023-11-19T06:53:50;12.80;99.90
21722;DHT22;11023;48.274;7.794;2023-11-19T06:56:23;12.70;99.90
21722;DHT22;11023;48.274;7.794;2023-11-19T06:58:49;12.70;99.90
21722;DHT22;11023;48.274;7.794;2023-11-19T07:01:16;12.70;99.90
21722;DHT22;11023;48.274;7.794;2023-11-19T07:03:42;12.80;99.90
21722;DHT22;11023;48.274;7.794;2023-11-19T07:06:07;12.80;99.90
21722;DHT22;11023;48.274;7.794;2023-11-19T07:08:34;12.80;99.90
21722;DHT22;11023;48.274;7.794;2023-11-19T07:10:59;12.80;99.90
21722;DHT22;11023;48.274;7.794;2023-11-19T07:13:25;12.80;99.90
21722;DHT22;11023;48.274;7.794;2023-11-19T07:15:55;12.90;99.90
21722;DHT22;11023;48.274;7.794;2023-11-19T07:18:21;12.90;99.90
21722;DHT22;11023;48.274;7.794;2023-11-19T07:20:48;13.00;99.90
21722;DHT22;11023;48.274;7.794;2023-11-19T07:23:13;13.00;99.90
21722;DHT22;11023;48.274;7.794;2023-11-19T07:25:43;13.00;99.90
21722;DHT22;11023;48.274;7.794;2023-11-19T07:28:12;13.00;99.90
21722;DHT22;11023;48.274;7.794;2023-11-19T07:30:38;13.00;99.90
21722;DHT22;11023;48.274;7.794;2023-11-19T07:33:04;13.00;99.90
21722;DHT22;11023;48.274;7.794;2023-11-19T07:35:31;13.00;99.90
21722;DHT22;11023;48.274;7.794;2023-11-19T07:37:59;13.00;99.90
21722;DHT22;11023;48.274;7.794;2023-11-19T07:40:25;13.10;99.90
21722;DHT22;11023;48.274;7.794;2023-11-19T07:42:52;13.10;99.90
21722;DHT22;11023;48.274;7.794;2023-11-19T07:45:19;13.10;99.90
21722;DHT22;11023;48.274;7.794;2023-11-19T07:47:45;13.20;99.90
21722;DHT22;11023;48.274;7.794;2023-11-19T07:50:11;13.20;99.90
21722;DHT22;11023;48.274;7.794;2023-11-19T07:52:38;13.20;99.90
21722;DHT22;11023;48.274;7.794;2023-11-19T07:55:04;13.30;99.90
21722;DHT22;11023;48.274;7.794;2023-11-19T07:57:30;13.30;99.90
21722;DHT22;11023;48.274;7.794;2023-11-19T07:59:57;13.30;99.90
21722;DHT22;11023;48.274;7.794;2023-11-19T08:02:23;13.30;99.90
21722;DHT22;11023;48.274;7.794;2023-11-19T08:04:52;13.30;99.90
21722;DHT22;11023;48.274;7.794;2023-11-19T08:07:21;13.30;99.90
21722;DHT22;11023;48.274;7.794;2023-11-19T08:09:48;13.40;99.90
21722;DHT22;11023;48.274;7.794;2023-11-19T08:12:13;13.30;99.90
21722;DHT22;11023;48.274;7.794;2023-11-19T08:14:43;13.40;99.90
21722;DHT22;11023;48.274;7.794;2023-11-19T08:17:09;13.40;99.90
21722;DHT22;11023;48.274;7.794;2023-11-19T08:19:35;13.40;99.90
21722;DHT22;11023;48.274;7.794;2023-11-19T08:22:00;13.40;99.90
21722;DHT22;11023;48.274;7.794;2023-11-19T08:24:26;13.40;99.90
21722;DHT22;11023;48.274;7.794;2023-11-19T08:26:52;13.40;99.90
21722;DHT22;11023;48.274;7.794;2023-11-19T08:29:17;13.40;99.90
21722;DHT22;11023;48.274;7.794;2023-11-19T08:31:43;13.40;99.90
21722;DHT22;11023;48.274;7.794;2023-11-19T08:34:08;13.50;99.90
21722;DHT22;11023;48.274;7.794;2023-11-19T08:36:35;13.50;99.90
21722;DHT22;11023;48.274;7.794;2023-11-19T08:39:01;13.50;99.90
21722;DHT22;11023;48.274;7.794;2023-11-19T08:41:26;13.50;99.90
21722;DHT22;11023;48.274;7.794;2023-11-19T08:43:52;13.50;99.90
21722;DHT22;11023;48.274;7.794;2023-11-19T08:46:18;13.60;99.90
21722;DHT22;11023;48.274;7.794;2023-11-19T08:48:44;13.60;99.90
21722;DHT22;11023;48.274;7.794;2023-11-19T08:51:09;13.60;99.90
21722;DHT22;11023;48.274;7.794;2023-11-19T08:53:35;13.60;99.90
21722;DHT22;11023;48.274;7.794;2023-11-19T08:56:01;13.60;99.90
21722;DHT22;11023;48.274;7.794;2023-11-19T08:58:28;13.60;99.90
21722;DHT22;11023;48.274;7.794;2023-11-19T09:00:54;13.70;99.90
21722;DHT22;11023;48.274;7.794;2023-11-19T09:03:19;13.70;99.90
21722;DHT22;11023;48.274;7.794;2023-11-19T09:05:45;13.70;99.90
21722;DHT22;11023;48.274;7.794;2023-11-19T09:08:11;13.70;99.90
21722;DHT22;11023;48.274;7.794;2023-11-19T09:10:37;13.80;99.90
21722;DHT22;11023;48.274;7.794;2023-11-19T09:13:03;13.80;99.90
21722;DHT22;11023;48.274;7.794;2023-11-19T09:15:29;13.80;99.90
21722;DHT22;11023;48.274;7.794;2023-11-19T09:17:55;13.80;99.90
21722;DHT22;11023;48.274;7.794;2023-11-19T09:20:21;13.90;99.90
21722;DHT22;11023;48.274;7.794;2023-11-19T09:22:47;13.80;99.90
21722;DHT22;11023;48.274;7.794;2023-11-19T09:25:13;13.90;99.90
21722;DHT22;11023;48.274;7.794;2023-11-19T09:27:42;13.90;99.90
21722;DHT22;11023;48.274;7.794;2023-11-19T09:30:09;13.90;99.90
21722;DHT22;11023;48.274;7.794;2023-11-19T09:32:35;13.90;99.90
21722;DHT22;11023;48.274;7.794;2023-11-19T09:35:00;13.90;99.90
21722;DHT22;11023;48.274;7.794;2023-11-19T09:37:28;13.90;99.90
21722;DHT22;11023;48.274;7.794;2023-11-19T09:39:53;14.00;99.90
21722;DHT22;11023;48.274;7.794;2023-11-19T09:42:19;14.00;99.90
21722;DHT22;11023;48.274;7.794;2023-11-19T09:44:47;14.00;99.90
21722;DHT22;11023;48.274;7.794;2023-11-19T09:47:14;14.00;99.90
21722;DHT22;11023;48.274;7.794;2023-11-19T09:49:41;14.10;99.90
21722;DHT22;11023;48.274;7.794;2023-11-19T09:52:07;14.10;99.90
21722;DHT22;11023;48.274;7.794;2023-11-19T09:54:32;14.10;99.90
21722;DHT22;11023;48.274;7.794;2023-11-19T09:56:59;14.10;99.90
21722;DHT22;11023;48.274;7.794;2023-11-19T09:59:29;14.10;99.90
21722;DHT22;11023;48.274;7.794;2023-11-19T10:01:56;14.10;99.90
21722;DHT22;11023;48.274;7.794;2023-11-19T10:04:23;14.10;99.90
21722;DHT22;11023;48.274;7.794;2023-11-19T10:06:50;14.10;99.90
21722;DHT22;11023;48.274;7.794;2023-11-19T10:09:17;14.10;99.90
21722;DHT22;11023;48.274;7.794;2023-11-19T10:11:42;14.10;99.90
21722;DHT22;11023;48.274;7.794;2023-11-19T10:14:09;14.10;99.90
21722;DHT22;11023;48.274;7.794;2023-11-19T10:16:35;14.10;99.90
21722;DHT22;11023;48.274;7.794;2023-11-19T10:19:00;14.10;99.90
21722;DHT22;11023;48.274;7.794;2023-11-19T10:21:26;14.10;99.90
21722;DHT22;11023;48.274;7.794;2023-11-19T10:23:55;14.10;99.90
21722;DHT22;11023;48.274;7.794;2023-11-19T10:26:23;14.10;99.90
21722;DHT22;11023;48.274;7.794;2023-11-19T10:28:49;14.10;99.90
21722;DHT22;11023;48.274;7.794;2023-11-19T10:31:19;14.00;99.90
21722;DHT22;11023;48.274;7.794;2023-11-19T10:33:50;14.00;99.90
21722;DHT22;11023;48.274;7.794;2023-11-19T10:36:16;14.00;99.90
21722;DHT22;11023;48.274;7.794;2023-11-19T10:38:55;14.10;99.90
21722;DHT22;11023;48.274;7.794;2023-11-19T10:41:31;14.00;99.90
21722;DHT22;11023;48.274;7.794;2023-11-19T10:43:58;14.00;99.90
21722;DHT22;11023;48.274;7.794;2023-11-19T10:46:36;14.10;99.90
21722;DHT22;11023;48.274;7.794;2023-11-19T10:49:02;14.10;99.90
21722;DHT22;11023;48.274;7.794;2023-11-19T10:51:29;14.10;99.90
21722;DHT22;11023;48.274;7.794;2023-11-19T10:54:01;14.10;99.90
21722;DHT22;11023;48.274;7.794;2023-11-19T10:56:30;14.20;99.90
21722;DHT22;11023;48.274;7.794;2023-11-19T10:59:01;14.30;99.90
21722;DHT22;11023;48.274;7.794;2023-11-19T11:01:39;14.30;99.90
21722;DHT22;11023;48.274;7.794;2023-11-19T11:04:13;14.30;99.90
21722;DHT22;11023;48.274;7.794;2023-11-19T11:06:40;14.30;99.90
21722;DHT22;11023;48.274;7.794;2023-11-19T11:09:07;14.40;99.90
21722;DHT22;11023;48.274;7.794;2023-11-19T11:11:38;14.40;99.90
21722;DHT22;11023;48.274;7.794;2023-11-19T11:14:05;14.40;99.90
21722;DHT22;11023;48.274;7.794;2023-11-19T11:16:31;14.50;99.90
21722;DHT22;11023;48.274;7.794;2023-11-19T11:18:57;14.60;99.90
21722;DHT22;11023;48.274;7.794;2023-11-19T11:21:26;14.60;99.90
21722;DHT22;11023;48.274;7.794;2023-11-19T11:38:14;15.00;99.90
21722;DHT22;11023;48.274;7.794;2023-11-19T11:40:41;15.00;99.90
21722;DHT22;11023;48.274;7.794;2023-11-19T11:49:00;15.10;99.90
21722;DHT22;11023;48.274;7.794;2023-11-19T11:57:07;15.10;99.90
21722;DHT22;11023;48.274;7.794;2023-11-19T11:59:47;15.20;99.90
21722;DHT22;11023;48.274;7.794;2023-11-19T12:02:20;15.10;99.90
21722;DHT22;11023;48.274;7.794;2023-11-19T12:04:48;15.10;99.90
21722;DHT22;11023;48.274;7.794;2023-11-19T12:07:17;15.20;99.90
21722;DHT22;11023;48.274;7.794;2023-11-19T12:09:48;15.20;99.90
21722;DHT22;11023;48.274;7.794;2023-11-19T12:20:04;15.40;99.90
21722;DHT22;11023;48.274;7.794;2023-11-19T12:22:32;15.50;99.90
21722;DHT22;11023;48.274;7.794;2023-11-19T12:24:58;15.50;99.90
21722;DHT22;11023;48.274;7.794;2023-11-19T12:27:24;15.50;99.90
21722;DHT22;11023;48.274;7.794;2023-11-19T12:29:50;15.50;99.90
21722;DHT22;11023;48.274;7.794;2023-11-19T12:32:16;15.50;99.90
21722;DHT22;11023;48.274;7.794;2023-11-19T12:34:41;15.50;99.90
21722;DHT22;11023;48.274;7.794;2023-11-19T12:37:08;15.60;99.90
21722;DHT22;11023;48.274;7.794;2023-11-19T12:39:36;15.60;99.90
21722;DHT22;11023;48.274;7.794;2023-11-19T12:42:02;15.60;99.90
21722;DHT22;11023;48.274;7.794;2023-11-19T12:44:28;15.60;99.90
21722;DHT22;11023;48.274;7.794;2023-11-19T12:47:06;15.70;99.90
21722;DHT22;11023;48.274;7.794;2023-11-19T12:49:35;15.80;99.90
21722;DHT22;11023;48.274;7.794;2023-11-19T12:52:01;15.90;99.90
21722;DHT22;11023;48.274;7.794;2023-11-19T12:54:35;16.00;99.90
21722;DHT22;11023;48.274;7.794;2023-11-19T12:57:02;16.10;99.90
21722;DHT22;11023;48.274;7.794;2023-11-19T12:59:28;16.20;99.90
21722;DHT22;11023;48.274;7.794;2023-11-19T13:01:55;16.20;99.90
21722;DHT22;11023;48.274;7.794;2023-11-19T13:04:21;16.30;99.90
21722;DHT22;11023;48.274;7.794;2023-11-19T13:06:47;16.40;99.90
21722;DHT22;11023;48.274;7.794;2023-11-19T13:09:26;16.40;99.90
21722;DHT22;11023;48.274;7.794;2023-11-19T13:11:53;16.40;99.90
21722;DHT22;11023;48.274;7.794;2023-11-19T13:14:20;16.50;99.90
21722;DHT22;11023;48.274;7.794;2023-11-19T13:16:46;16.50;99.90
21722;DHT22;11023;48.274;7.794;2023-11-19T13:19:15;16.60;99.90
21722;DHT22;11023;48.274;7.794;2023-11-19T13:21:45;16.50;99.90
21722;DHT22;11023;48.274;7.794;2023-11-19T13:24:14;16.50;99.90
21722;DHT22;11023;48.274;7.794;2023-11-19T13:26:40;16.60;99.90
21722;DHT22;11023;48.274;7.794;2023-11-19T13:29:05;16.60;99.90
21722;DHT22;11023;48.274;7.794;2023-11-19T13:31:31;16.70;99.90
21722;DHT22;11023;48.274;7.794;2023-11-19T13:33:58;16.70;99.90
21722;DHT22;11023;48.274;7.794;2023-11-19T13:36:24;16.80;99.90
21722;DHT22;11023;48.274;7.794;2023-11-19T13:38:51;16.80;99.90
21722;DHT22;11023;48.274;7.794;2023-11-19T13:41:16;16.80;99.90
21722;DHT22;11023;48.274;7.794;2023-11-19T13:43:42;16.80;99.90
21722;DHT22;11023;48.274;7.794;2023-11-19T13:46:09;16.80;99.90
21722;DHT22;11023;48.274;7.794;2023-11-19T13:48:35;16.80;99.90
21722;DHT22;11023;48.274;7.794;2023-11-19T13:51:01;16.90;99.90
21722;DHT22;11023;48.274;7.794;2023-11-19T13:53:26;16.90;99.90
21722;DHT22;11023;48.274;7.794;2023-11-19T13:55:52;16.90;99.90
21722;DHT22;11023;48.274;7.794;2023-11-19T13:58:18;16.90;99.90
21722;DHT22;11023;48.274;7.794;2023-11-19T14:00:44;16.90;99.90
21722;DHT22;11023;48.274;7.794;2023-11-19T14:03:09;17.00;99.90
21722;DHT22;11023;48.274;7.794;2023-11-19T14:05:37;17.00;99.90
21722;DHT22;11023;48.274;7.794;2023-11-19T14:08:03;17.00;99.90
21722;DHT22;11023;48.274;7.794;2023-11-19T14:10:29;17.10;99.90
21722;DHT22;11023;48.274;7.794;2023-11-19T14:12:54;17.20;99.90
21722;DHT22;11023;48.274;7.794;2023-11-19T14:15:20;17.20;99.90
21722;DHT22;11023;48.274;7.794;2023-11-19T14:17:45;17.20;99.90
21722;DHT22;11023;48.274;7.794;2023-11-19T14:20:11;17.20;99.90
21722;DHT22;11023;48.274;7.794;2023-11-19T14:22:42;17.20;99.90
21722;DHT22;11023;48.274;7.794;2023-11-19T14:25:08;17.20;99.90
21722;DHT22;11023;48.274;7.794;2023-11-19T14:27:39;17.30;99.90
21722;DHT22;11023;48.274;7.794;2023-11-19T14:30:06;17.30;99.90
21722;DHT22;11023;48.274;7.794;2023-11-19T14:32:32;17.30;99.90
21722;DHT22;11023;48.274;7.794;2023-11-19T14:34:58;17.30;99.90
21722;DHT22;11023;48.274;7.794;2023-11-19T14:37:24;17.30;99.90
21722;DHT22;11023;48.274;7.794;2023-11-19T14:39:49;17.30;99.90
21722;DHT22;11023;48.274;7.794;2023-11-19T14:42:16;17.30;99.90
21722;DHT22;11023;48.274;7.794;2023-11-19T14:44:42;17.30;99.90
21722;DHT22;11023;48.274;7.794;2023-11-19T14:47:08;17.30;99.90
21722;DHT22;11023;48.274;7.794;2023-11-19T14:49:37;17.20;99.90
21722;DHT22;11023;48.274;7.794;2023-11-19T14:52:03;17.10;99.90
21722;DHT22;11023;48.274;7.794;2023-11-19T14:54:29;17.00;99.90
21722;DHT22;11023;48.274;7.794;2023-11-19T14:56:55;16.90;99.90
21722;DHT22;11023;48.274;7.794;2023-11-19T14:59:21;16.80;99.90
21722;DHT22;11023;48.274;7.794;2023-11-19T15:01:46;16.70;99.90
21722;DHT22;11023;48.274;7.794;2023-11-19T15:04:12;16.70;99.90
21722;DHT22;11023;48.274;7.794;2023-11-19T15:06:38;16.60;99.90
21722;DHT22;11023;48.274;7.794;2023-11-19T15:09:04;16.50;99.90
21722;DHT22;11023;48.274;7.794;2023-11-19T15:11:30;16.40;99.90
21722;DHT22;11023;48.274;7.794;2023-11-19T15:13:56;16.30;99.90
21722;DHT22;11023;48.274;7.794;2023-11-19T15:16:22;16.30;99.90
21722;DHT22;11023;48.274;7.794;2023-11-19T15:18:57;16.20;99.90
21722;DHT22;11023;48.274;7.794;2023-11-19T15:21:25;16.00;99.90
21722;DHT22;11023;48.274;7.794;2023-11-19T15:23:52;16.00;99.90
21722;DHT22;11023;48.274;7.794;2023-11-19T15:26:18;15.90;99.90
21722;DHT22;11023;48.274;7.794;2023-11-19T15:28:44;15.90;99.90
21722;DHT22;11023;48.274;7.794;2023-11-19T15:31:10;15.80;99.90
21722;DHT22;11023;48.274;7.794;2023-11-19T15:33:36;15.70;99.90
21722;DHT22;11023;48.274;7.794;2023-11-19T15:36:01;15.60;99.90
21722;DHT22;11023;48.274;7.794;2023-11-19T15:38:35;15.60;99.90
21722;DHT22;11023;48.274;7.794;2023-11-19T15:41:01;15.50;99.90
21722;DHT22;11023;48.274;7.794;2023-11-19T15:43:28;15.50;99.90
21722;DHT22;11023;48.274;7.794;2023-11-19T15:45:55;15.40;99.90
21722;DHT22;11023;48.274;7.794;2023-11-19T15:48:20;15.30;99.90
21722;DHT22;11023;48.274;7.794;2023-11-19T15:50:46;15.20;99.90
21722;DHT22;11023;48.274;7.794;2023-11-19T15:53:12;15.10;99.90
21722;DHT22;11023;48.274;7.794;2023-11-19T15:55:38;15.00;99.90
21722;DHT22;11023;48.274;7.794;2023-11-19T15:58:04;15.00;99.90
21722;DHT22;11023;48.274;7.794;2023-11-19T16:00:29;15.00;99.90
21722;DHT22;11023;48.274;7.794;2023-11-19T16:02:55;14.90;99.90
21722;DHT22;11023;48.274;7.794;2023-11-19T16:05:22;14.80;99.90
21722;DHT22;11023;48.274;7.794;2023-11-19T16:07:49;14.70;99.90